createdAt,value
2019-02-21T00:01:15.786Z,10.60
2019-02-21T00:03:44.172Z,9.17
2019-02-21T00:06:12.591Z,10.93
2019-02-21T00:08:40.989Z,10.57
2019-02-21T00:11:09.396Z,9.43
2019-02-21T00:13:37.874Z,10.13
2019-02-21T00:16:06.392Z,11.77
2019-02-21T00:18:34.854Z,11.63
2019-02-21T00:21:03.246Z,12.97
2019-02-21T00:23:31.660Z,12.50
2019-02-21T00:26:00.109Z,11.43
2019-02-21T00:28:28.506Z,11.10
2019-02-21T00:30:56.910Z,12.63
2019-02-21T00:33:25.437Z,10.17
2019-02-21T00:35:53.870Z,11.37
2019-02-21T00:38:22.257Z,11.50
2019-02-21T00:40:50.681Z,11.20
2019-02-21T00:43:19.075Z,12.83
2019-02-21T00:45:47.530Z,14.23
2019-02-21T00:48:15.904Z,10.30
2019-02-21T00:50:44.335Z,11.93
2019-02-21T00:53:12.744Z,12.57
2019-02-21T00:55:41.157Z,11.73
2019-02-21T00:58:09.544Z,10.70
2019-02-21T01:00:46.068Z,12.80
2019-02-21T01:03:08.080Z,13.10
2019-02-21T01:05:36.616Z,11.07
2019-02-21T01:08:05.290Z,10.47
2019-02-21T01:10:33.715Z,11.50
2019-02-21T01:13:02.137Z,11.67
2019-02-21T01:15:30.646Z,10.70
2019-02-21T01:17:59.041Z,12.57
2019-02-21T01:20:27.500Z,10.43
2019-02-21T01:22:55.890Z,10.10
2019-02-21T01:25:24.312Z,11.30
2019-02-21T01:27:52.713Z,11.67
2019-02-21T01:30:21.189Z,11.20
2019-02-21T01:32:49.588Z,11.50
2019-02-21T01:35:18.009Z,12.03
2019-02-21T01:37:46.408Z,10.47
2019-02-21T01:40:14.865Z,12.83
2019-02-21T01:42:43.252Z,12.30
2019-02-21T01:45:11.675Z,11.97
2019-02-21T01:47:40.062Z,11.97
2019-02-21T01:50:08.972Z,10.73
2019-02-21T01:52:37.367Z,11.00
2019-02-21T01:55:08.495Z,11.73
2019-02-21T01:57:36.887Z,17.00
2019-02-21T02:00:08.601Z,11.83
2019-02-21T02:02:36.989Z,11.80
2019-02-21T02:05:07.466Z,11.50
2019-02-21T02:07:35.858Z,12.17
2019-02-21T02:10:04.948Z,10.53
2019-02-21T02:12:33.404Z,11.70
2019-02-21T02:15:01.827Z,9.90
2019-02-21T02:17:30.209Z,13.17
2019-02-21T02:19:58.738Z,11.70
2019-02-21T02:22:27.200Z,11.97
2019-02-21T02:24:55.602Z,10.17
2019-02-21T02:27:24.003Z,11.10
2019-02-21T02:29:52.414Z,11.13
2019-02-21T02:32:20.938Z,9.83
2019-02-21T02:34:49.328Z,11.43
2019-02-21T02:37:17.799Z,10.93
2019-02-21T02:39:46.197Z,11.47
2019-02-21T02:42:14.616Z,11.70
2019-02-21T02:44:43.015Z,10.73
2019-02-21T02:47:11.432Z,10.93
2019-02-21T02:49:39.844Z,10.93
2019-02-21T02:52:08.290Z,12.03
2019-02-21T02:54:36.710Z,11.57
2019-02-21T02:57:05.108Z,11.60
2019-02-21T02:59:40.826Z,10.03
2019-02-21T03:02:03.681Z,13.30
2019-02-21T03:04:32.100Z,11.10
2019-02-21T03:07:00.507Z,10.10
2019-02-21T03:09:28.894Z,10.83
2019-02-21T03:11:57.344Z,10.87
2019-02-21T03:14:25.826Z,10.83
2019-02-21T03:16:54.211Z,11.87
2019-02-21T03:19:22.644Z,11.40
2019-02-21T03:21:51.057Z,11.17
2019-02-21T03:24:19.452Z,11.03
2019-02-21T03:26:47.940Z,11.33
2019-02-21T03:29:16.396Z,11.70
2019-02-21T03:31:54.693Z,10.50
2019-02-21T03:34:14.931Z,12.37
2019-02-21T03:36:43.353Z,10.50
2019-02-21T03:39:11.754Z,13.17
2019-02-21T03:41:40.178Z,10.50
2019-02-21T03:44:08.572Z,11.10
2019-02-21T03:46:37.106Z,12.47
2019-02-21T03:49:05.504Z,10.23
2019-02-21T03:51:33.914Z,10.23
2019-02-21T03:54:02.310Z,10.80
2019-02-21T03:56:30.827Z,11.03
2019-02-21T03:58:59.216Z,9.60
2019-02-21T04:01:27.614Z,11.27
2019-02-21T04:03:56.038Z,11.57
2019-02-21T04:06:24.592Z,10.37
2019-02-21T04:08:52.985Z,10.33
2019-02-21T04:11:21.463Z,10.73
2019-02-21T04:13:49.921Z,9.50
2019-02-21T04:16:18.365Z,11.37
2019-02-21T04:18:46.813Z,9.83
2019-02-21T04:21:15.223Z,11.57
2019-02-21T04:23:43.627Z,11.13
2019-02-21T04:26:12.187Z,10.73
2019-02-21T04:28:40.572Z,10.03
2019-02-21T04:31:09.001Z,11.17
2019-02-21T04:33:37.398Z,11.80
2019-02-21T04:36:05.817Z,10.87
2019-02-21T04:38:34.207Z,9.83
2019-02-21T04:41:02.616Z,10.23
2019-02-21T04:43:31.092Z,10.00
2019-02-21T04:45:59.519Z,9.43
2019-02-21T04:48:27.904Z,8.63
2019-02-21T04:50:56.314Z,10.40
2019-02-21T04:53:24.723Z,11.83
2019-02-21T04:55:53.144Z,10.63
2019-02-21T04:58:21.543Z,10.53
2019-02-21T05:00:49.966Z,9.67
2019-02-21T05:03:18.364Z,12.27
2019-02-21T05:05:46.739Z,8.80
2019-02-21T05:08:15.155Z,10.73
2019-02-21T05:10:43.558Z,10.43
2019-02-21T05:13:12.006Z,10.33
2019-02-21T05:15:40.402Z,9.97
2019-02-21T05:18:08.827Z,9.77
2019-02-21T05:20:37.242Z,8.17
2019-02-21T05:23:05.683Z,9.43
2019-02-21T05:25:34.100Z,9.20
2019-02-21T05:28:04.158Z,10.90
2019-02-21T05:30:32.799Z,10.40
2019-02-21T05:33:05.662Z,11.10
2019-02-21T05:35:41.718Z,9.53
2019-02-21T05:38:14.230Z,9.30
2019-02-21T05:40:44.282Z,11.20
2019-02-21T05:43:14.511Z,9.63
2019-02-21T05:45:56.873Z,8.67
2019-02-21T05:48:32.944Z,11.40
2019-02-21T05:51:15.025Z,12.23
2019-02-21T05:53:50.865Z,8.90
2019-02-21T05:56:39.100Z,11.80
2019-02-21T05:59:25.717Z,9.17
2019-02-21T06:01:55.778Z,16.63
2019-02-21T06:04:44.279Z,7.50
2019-02-21T06:07:14.297Z,10.83
2019-02-21T06:09:44.343Z,9.87
2019-02-21T06:12:17.192Z,12.20
2019-02-21T06:14:57.433Z,9.47
2019-02-21T06:17:27.471Z,11.17
2019-02-21T06:20:13.429Z,8.53
2019-02-21T06:22:43.472Z,10.67
2019-02-21T06:25:13.550Z,9.07
2019-02-21T06:27:43.731Z,11.80
2019-02-21T06:30:13.777Z,10.20
2019-02-21T06:32:42.209Z,12.90
2019-02-21T06:35:11.377Z,17.23
2019-02-21T06:37:39.771Z,14.73
2019-02-21T06:40:08.205Z,11.60
2019-02-21T06:42:36.594Z,13.50
2019-02-21T06:45:06.276Z,15.50
2019-02-21T06:47:34.671Z,12.33
2019-02-21T06:50:03.070Z,15.70
2019-02-21T06:52:31.509Z,14.40
2019-02-21T06:55:02.085Z,13.87
2019-02-21T06:57:30.044Z,17.70
2019-02-21T06:59:58.436Z,13.10
2019-02-21T07:02:28.110Z,14.93
2019-02-21T07:04:56.934Z,14.50
2019-02-21T07:07:25.360Z,13.33
2019-02-21T07:09:53.759Z,15.27
2019-02-21T07:12:22.179Z,13.63
2019-02-21T07:14:50.575Z,15.67
2019-02-21T07:17:18.989Z,15.80
2019-02-21T07:19:47.390Z,11.27
2019-02-21T07:22:18.054Z,11.10
2019-02-21T07:24:47.527Z,14.00
2019-02-21T07:27:15.952Z,14.57
2019-02-21T07:29:44.344Z,12.60
2019-02-21T07:32:12.841Z,13.93
2019-02-21T07:34:41.232Z,12.77
2019-02-21T07:37:18.055Z,12.87
2019-02-21T07:39:39.791Z,13.67
2019-02-21T07:42:08.228Z,15.00
2019-02-21T07:44:36.633Z,14.03
2019-02-21T07:47:05.061Z,12.40
2019-02-21T07:49:33.453Z,12.67
2019-02-21T07:52:01.898Z,14.37
2019-02-21T07:54:30.278Z,14.33
2019-02-21T07:56:58.729Z,14.17
2019-02-21T07:59:27.180Z,13.60
2019-02-21T08:01:55.589Z,11.07
2019-02-21T08:04:23.987Z,12.13
2019-02-21T08:06:55.392Z,13.03
2019-02-21T08:09:22.594Z,13.10
2019-02-21T08:11:50.983Z,12.70
2019-02-21T08:14:19.576Z,11.70
2019-02-21T08:16:47.962Z,11.90
2019-02-21T08:19:16.353Z,12.57
2019-02-21T08:21:44.847Z,13.83
2019-02-21T08:24:13.272Z,11.10
2019-02-21T08:26:41.662Z,14.93
2019-02-21T08:29:10.121Z,14.17
2019-02-21T08:31:38.511Z,12.87
2019-02-21T08:34:17.579Z,14.67
2019-02-21T08:36:46.069Z,16.37
2019-02-21T08:39:14.549Z,13.73
2019-02-21T08:41:43.002Z,14.93
2019-02-21T08:44:11.405Z,16.83
2019-02-21T08:46:39.785Z,15.07
2019-02-21T08:49:08.308Z,13.70
2019-02-21T08:51:36.788Z,16.60
2019-02-21T08:54:05.770Z,15.13
2019-02-21T08:56:34.604Z,17.47
2019-02-21T08:59:02.998Z,17.47
2019-02-21T09:01:31.407Z,14.03
2019-02-21T09:04:10.184Z,14.07
2019-02-21T09:06:29.977Z,15.70
2019-02-21T09:08:58.381Z,17.90
2019-02-21T09:11:26.918Z,18.30
2019-02-21T09:13:55.929Z,17.53
2019-02-21T09:16:24.557Z,13.27
2019-02-21T09:18:53.000Z,12.53
2019-02-21T09:21:21.396Z,13.77
2019-02-21T09:23:49.786Z,13.67
2019-02-21T09:26:18.322Z,9.50
2019-02-21T09:28:46.715Z,13.37
2019-02-21T09:31:15.109Z,11.67
2019-02-21T09:33:43.898Z,9.97
2019-02-21T09:36:12.551Z,10.87
2019-02-21T09:38:40.932Z,11.87
2019-02-21T09:41:09.381Z,10.93
2019-02-21T09:43:37.780Z,11.90
2019-02-21T09:46:06.171Z,7.57
2019-02-21T09:48:34.613Z,9.47
2019-02-21T09:51:03.070Z,9.17
2019-02-21T09:53:31.477Z,8.33
2019-02-21T09:55:59.947Z,7.73
2019-02-21T09:58:28.428Z,9.00
2019-02-21T10:00:56.909Z,9.03
2019-02-21T10:03:25.361Z,7.93
2019-02-21T10:05:53.760Z,8.93
2019-02-21T10:08:22.196Z,9.20
2019-02-21T10:10:50.592Z,8.40
2019-02-21T10:13:18.976Z,6.93
2019-02-21T10:15:47.373Z,11.87
2019-02-21T10:18:16.005Z,7.23
2019-02-21T10:20:44.390Z,6.87
2019-02-21T10:23:12.770Z,5.33
2019-02-21T10:25:41.222Z,6.67
2019-02-21T10:28:09.607Z,4.63
2019-02-21T10:30:38.040Z,6.33
2019-02-21T10:33:06.488Z,5.73
2019-02-21T10:35:34.938Z,5.47
2019-02-21T10:38:03.326Z,4.43
2019-02-21T10:40:33.447Z,7.50
2019-02-21T10:43:01.903Z,4.87
2019-02-21T10:45:30.289Z,4.03
2019-02-21T10:47:58.737Z,4.30
2019-02-21T10:50:27.148Z,4.23
2019-02-21T10:52:55.548Z,4.20
2019-02-21T10:55:24.149Z,5.93
2019-02-21T10:57:52.535Z,4.63
2019-02-21T11:00:26.615Z,4.37
2019-02-21T11:02:55.328Z,5.67
2019-02-21T11:05:23.722Z,3.97
2019-02-21T11:07:52.138Z,4.03
2019-02-21T11:10:27.068Z,3.97
2019-02-21T11:12:57.078Z,4.67
2019-02-21T11:15:25.954Z,5.77
2019-02-21T11:17:54.409Z,5.60
2019-02-21T11:20:23.067Z,2.90
2019-02-21T11:22:51.451Z,3.33
2019-02-21T11:25:19.960Z,4.17
2019-02-21T11:27:48.361Z,3.47
2019-02-21T11:30:20.669Z,3.50
2019-02-21T11:32:49.120Z,3.00
2019-02-21T11:35:17.485Z,3.13
2019-02-21T11:37:47.396Z,3.90
2019-02-21T11:40:17.930Z,4.13
2019-02-21T11:42:46.388Z,4.30
2019-02-21T11:45:19.182Z,2.97
2019-02-21T11:47:47.770Z,2.77
2019-02-21T11:50:17.393Z,4.80
2019-02-21T11:52:45.779Z,3.30
2019-02-21T11:55:16.817Z,3.07
2019-02-21T11:57:45.277Z,3.57
2019-02-21T12:00:25.849Z,2.80
2019-02-21T12:02:54.243Z,2.77
2019-02-21T12:05:30.327Z,2.63
2019-02-21T12:07:53.769Z,4.33
2019-02-21T12:10:22.155Z,2.13
2019-02-21T12:12:50.612Z,2.90
2019-02-21T12:15:19.121Z,2.57
2019-02-21T12:17:47.509Z,2.43
2019-02-21T12:20:17.344Z,2.43
2019-02-21T12:22:45.771Z,2.87
2019-02-21T12:25:22.361Z,2.50
2019-02-21T12:27:50.814Z,2.33
2019-02-21T12:30:20.087Z,2.73
2019-02-21T12:32:48.483Z,2.00
2019-02-21T12:35:16.908Z,3.00
2019-02-21T12:37:45.442Z,2.43
2019-02-21T12:40:19.376Z,2.77
2019-02-21T12:42:47.779Z,3.53
2019-02-21T12:45:18.719Z,2.00
2019-02-21T12:47:52.807Z,3.10
2019-02-21T12:50:17.291Z,2.83
2019-02-21T12:52:45.739Z,2.47
2019-02-21T12:55:26.475Z,2.37
2019-02-21T12:57:44.913Z,2.37
2019-02-21T13:00:16.129Z,2.23
2019-02-21T13:02:44.529Z,2.80
2019-02-21T13:05:13.018Z,2.47
2019-02-21T13:07:41.490Z,2.10
2019-02-21T13:10:12.349Z,2.97
2019-02-21T13:12:40.729Z,2.17
2019-02-21T13:15:11.715Z,2.30
2019-02-21T13:17:40.152Z,2.37
2019-02-21T13:20:10.781Z,2.03
2019-02-21T13:22:39.239Z,2.43
2019-02-21T13:25:10.325Z,3.17
2019-02-21T13:27:38.740Z,2.73
2019-02-21T13:30:12.632Z,2.47
2019-02-21T13:32:41.031Z,3.00
2019-02-21T13:35:10.355Z,3.30
2019-02-21T13:37:38.794Z,2.00
2019-02-21T13:40:10.227Z,2.80
2019-02-21T13:42:38.629Z,2.53
2019-02-21T13:45:08.694Z,2.30
2019-02-21T13:47:39.160Z,2.17
2019-02-21T13:50:13.124Z,2.20
2019-02-21T13:52:41.588Z,2.97
2019-02-21T13:55:09.986Z,2.87
2019-02-21T13:57:38.377Z,2.23
2019-02-21T14:00:21.030Z,2.20
2019-02-21T14:02:49.425Z,1.97
2019-02-21T14:05:17.818Z,1.90
2019-02-21T14:07:46.289Z,2.40
2019-02-21T14:10:14.994Z,3.07
2019-02-21T14:12:44.755Z,2.93
2019-02-21T14:15:16.393Z,2.53
2019-02-21T14:17:46.615Z,2.10
2019-02-21T14:20:14.961Z,2.73
2019-02-21T14:22:43.402Z,2.17
2019-02-21T14:25:12.147Z,2.50
2019-02-21T14:27:40.617Z,2.17
2019-02-21T14:30:12.237Z,2.23
2019-02-21T14:32:40.628Z,2.27
2019-02-21T14:35:11.250Z,2.07
2019-02-21T14:37:39.799Z,2.60
2019-02-21T14:40:10.884Z,2.20
2019-02-21T14:42:39.277Z,2.10
2019-02-21T14:45:12.317Z,1.97
2019-02-21T14:47:41.064Z,2.17
2019-02-21T14:50:11.495Z,1.90
2019-02-21T14:52:39.942Z,1.90
2019-02-21T14:55:10.874Z,2.20
2019-02-21T14:57:41.183Z,2.63
2019-02-21T15:00:13.214Z,1.77
2019-02-21T15:02:41.601Z,2.33
2019-02-21T15:05:10.251Z,2.37
2019-02-21T15:07:38.712Z,2.17
2019-02-21T15:10:09.239Z,3.20
2019-02-21T15:12:37.625Z,2.03
2019-02-21T15:15:09.324Z,3.13
2019-02-21T15:17:37.719Z,2.63
2019-02-21T15:20:09.304Z,1.63
2019-02-21T15:22:37.834Z,1.83
2019-02-21T15:25:08.233Z,1.80
2019-02-21T15:27:36.622Z,2.83
2019-02-21T15:30:11.198Z,2.13
2019-02-21T15:32:39.594Z,1.90
2019-02-21T15:35:07.982Z,1.93
2019-02-21T15:37:36.418Z,1.83
2019-02-21T15:40:08.812Z,2.30
2019-02-21T15:42:37.422Z,2.17
2019-02-21T15:45:23.402Z,2.30
2019-02-21T15:47:48.549Z,2.27
2019-02-21T15:50:19.936Z,2.20
2019-02-21T15:52:48.324Z,2.87
2019-02-21T15:55:19.318Z,2.63
2019-02-21T15:57:47.705Z,2.43
2019-02-21T16:00:20.399Z,2.57
2019-02-21T16:02:49.069Z,2.77
2019-02-21T16:05:17.460Z,3.00
2019-02-21T16:07:45.900Z,2.93
2019-02-21T16:10:20.041Z,2.40
2019-02-21T16:12:48.767Z,2.50
2019-02-21T16:15:17.750Z,2.90
2019-02-21T16:17:46.152Z,2.57
2019-02-21T16:20:19.390Z,2.20
2019-02-21T16:22:47.991Z,3.67
2019-02-21T16:25:22.453Z,1.90
2019-02-21T16:27:50.856Z,2.87
2019-02-21T16:30:21.918Z,2.40
2019-02-21T16:32:49.401Z,2.47
2019-02-21T16:35:17.816Z,2.30
2019-02-21T16:37:46.209Z,2.37
2019-02-21T16:40:17.862Z,2.70
2019-02-21T16:42:46.313Z,3.00
2019-02-21T16:45:21.872Z,2.60
2019-02-21T16:47:50.265Z,2.60
2019-02-21T16:50:29.277Z,2.93
2019-02-21T16:52:48.857Z,3.17
2019-02-21T16:55:21.992Z,2.93
2019-02-21T16:57:50.420Z,2.70
2019-02-21T17:00:23.401Z,2.80
2019-02-21T17:02:52.049Z,2.90
2019-02-21T17:05:20.524Z,3.30
2019-02-21T17:07:48.974Z,3.83
2019-02-21T17:10:17.699Z,3.30
2019-02-21T17:12:46.084Z,3.47
2019-02-21T17:15:18.127Z,3.17
2019-02-21T17:17:46.510Z,3.13
2019-02-21T17:20:25.006Z,4.13
2019-02-21T17:22:53.601Z,4.20
2019-02-21T17:25:21.986Z,3.70
2019-02-21T17:27:50.825Z,3.90
2019-02-21T17:30:19.673Z,4.47
2019-02-21T17:32:48.050Z,3.83
2019-02-21T17:35:16.482Z,3.27
2019-02-21T17:37:44.873Z,4.17
2019-02-21T17:40:24.161Z,3.67
2019-02-21T17:42:52.548Z,4.67
2019-02-21T17:45:20.981Z,4.33
2019-02-21T17:47:49.657Z,3.93
2019-02-21T17:50:18.882Z,4.13
2019-02-21T17:52:47.319Z,4.90
2019-02-21T17:55:16.665Z,4.90
2019-02-21T17:57:45.096Z,5.10
2019-02-21T18:00:20.690Z,4.40
2019-02-21T18:02:49.131Z,5.37
2019-02-21T18:05:17.584Z,4.60
2019-02-21T18:07:46.035Z,4.37
2019-02-21T18:10:15.859Z,4.90
2019-02-21T18:12:44.244Z,4.53
2019-02-21T18:15:14.267Z,5.03
2019-02-21T18:17:42.819Z,21.57
2019-02-21T18:20:12.853Z,13.10
2019-02-21T18:22:41.243Z,13.37
2019-02-21T18:25:34.396Z,8.47
2019-02-21T18:28:02.797Z,16.20
2019-02-21T18:30:31.325Z,17.17
2019-02-21T18:32:59.722Z,20.03
2019-02-21T18:35:28.125Z,21.57
2019-02-21T18:37:56.534Z,22.93
2019-02-21T18:40:28.504Z,23.97
2019-02-21T18:42:56.958Z,27.90
2019-02-21T18:45:25.365Z,28.23
2019-02-21T18:47:53.748Z,25.97
2019-02-21T18:50:22.229Z,28.77
2019-02-21T18:52:50.625Z,29.40
2019-02-21T18:55:19.214Z,30.37
2019-02-21T18:57:47.621Z,31.47
2019-02-21T19:00:22.049Z,29.97
2019-02-21T19:02:50.451Z,27.03
2019-02-21T19:05:19.048Z,28.37
2019-02-21T19:08:00.435Z,28.57
2019-02-21T19:10:23.113Z,32.03
2019-02-21T19:12:51.520Z,31.43
2019-02-21T19:15:21.071Z,30.73
2019-02-21T19:17:49.478Z,29.10
2019-02-21T19:20:19.381Z,25.63
2019-02-21T19:22:47.782Z,28.53
2019-02-21T19:25:16.208Z,26.30
2019-02-21T19:27:44.730Z,25.13
2019-02-21T19:30:19.003Z,24.23
2019-02-21T19:32:47.405Z,23.97
2019-02-21T19:35:16.226Z,25.53
2019-02-21T19:37:44.688Z,23.70
2019-02-21T19:40:13.178Z,23.50
2019-02-21T19:42:41.650Z,27.53
2019-02-21T19:45:10.299Z,22.87
2019-02-21T19:47:38.696Z,21.63
2019-02-21T19:50:08.931Z,23.60
2019-02-21T19:52:37.390Z,25.90
2019-02-21T19:55:08.390Z,21.40
2019-02-21T19:57:36.780Z,22.07
2019-02-21T20:00:21.487Z,20.80
2019-02-21T20:02:49.875Z,21.03
2019-02-21T20:05:22.067Z,21.07
2019-02-21T20:07:50.797Z,20.80
2019-02-21T20:10:19.463Z,19.63
2019-02-21T20:12:47.867Z,19.80
2019-02-21T20:15:17.982Z,19.67
2019-02-21T20:17:46.540Z,21.63
2019-02-21T20:20:28.057Z,22.20
2019-02-21T20:22:57.698Z,28.27
2019-02-21T20:25:26.105Z,24.73
2019-02-21T20:27:54.524Z,24.23
2019-02-21T20:30:23.475Z,19.73
2019-02-21T20:32:51.857Z,24.97
2019-02-21T20:35:20.408Z,20.33
2019-02-21T20:37:48.813Z,24.83
2019-02-21T20:40:17.228Z,19.47
2019-02-21T20:42:45.696Z,18.10
2019-02-21T20:45:15.180Z,15.50
2019-02-21T20:47:44.736Z,14.40
2019-02-21T20:50:13.311Z,14.83
2019-02-21T20:52:41.715Z,15.97
2019-02-21T20:55:11.231Z,14.23
2019-02-21T20:57:39.810Z,13.37
2019-02-21T21:00:13.201Z,12.40
2019-02-21T21:02:41.594Z,11.77
2019-02-21T21:05:11.644Z,10.70
2019-02-21T21:07:40.183Z,14.27
2019-02-21T21:10:12.423Z,10.60
2019-02-21T21:12:40.880Z,10.40
2019-02-21T21:15:10.873Z,8.93
2019-02-21T21:17:39.402Z,9.73
2019-02-21T21:20:16.468Z,9.70
2019-02-21T21:22:41.281Z,9.87
2019-02-21T21:25:12.215Z,10.27
2019-02-21T21:27:40.679Z,9.33
2019-02-21T21:30:11.404Z,7.77
2019-02-21T21:32:39.913Z,9.83
2019-02-21T21:35:08.312Z,8.70
2019-02-21T21:37:38.326Z,8.17
2019-02-21T21:40:09.921Z,5.97
2019-02-21T21:42:38.437Z,7.50
2019-02-21T21:45:10.085Z,8.47
2019-02-21T21:47:38.477Z,11.90
2019-02-21T21:50:09.510Z,7.83
2019-02-21T21:52:37.935Z,6.83
2019-02-21T21:55:06.387Z,6.27
2019-02-21T21:57:34.778Z,7.33
2019-02-21T22:00:05.282Z,6.00
2019-02-21T22:02:33.671Z,6.87
2019-02-21T22:05:02.072Z,5.30
2019-02-21T22:07:30.457Z,6.33
2019-02-21T22:09:58.845Z,5.10
2019-02-21T22:12:27.276Z,6.43
2019-02-21T22:14:55.664Z,5.47
2019-02-21T22:17:24.066Z,5.23
2019-02-21T22:19:52.456Z,4.83
2019-02-21T22:22:20.955Z,5.43
2019-02-21T22:24:49.441Z,4.17
2019-02-21T22:27:17.830Z,4.70
2019-02-21T22:29:46.260Z,6.30
2019-02-21T22:32:14.655Z,4.37
2019-02-21T22:34:43.060Z,4.10
2019-02-21T22:37:11.466Z,4.57
2019-02-21T22:39:39.702Z,3.80
2019-02-21T22:42:08.105Z,4.27
2019-02-21T22:44:36.544Z,5.40
2019-02-21T22:47:04.978Z,3.63
2019-02-21T22:49:33.374Z,4.37
2019-02-21T22:52:01.770Z,4.13
2019-02-21T22:54:30.185Z,4.27
2019-02-21T22:56:58.578Z,5.63
2019-02-21T22:59:27.022Z,4.57
2019-02-21T23:01:55.754Z,3.67
2019-02-21T23:04:26.997Z,7.93
2019-02-21T23:07:04.586Z,4.70
2019-02-21T23:09:33.065Z,5.43
2019-02-21T23:12:01.448Z,4.37
2019-02-21T23:14:29.849Z,6.30
2019-02-21T23:16:58.230Z,4.93
2019-02-21T23:19:26.622Z,4.67
2019-02-21T23:21:55.023Z,6.43
2019-02-21T23:24:23.479Z,4.17
2019-02-21T23:26:51.874Z,3.77
2019-02-21T23:29:20.260Z,3.87
2019-02-21T23:31:48.738Z,4.87
2019-02-21T23:34:18.770Z,5.83
2019-02-21T23:36:47.160Z,3.53
2019-02-21T23:39:15.584Z,2.90
2019-02-21T23:41:43.968Z,4.20
2019-02-21T23:44:12.363Z,3.30
2019-02-21T23:46:40.752Z,4.40
2019-02-21T23:49:09.216Z,3.13
2019-02-21T23:51:37.604Z,3.07
2019-02-21T23:54:05.999Z,2.80
2019-02-21T23:56:34.385Z,4.10
2019-02-21T23:59:02.782Z,2.93
